createdAt,value
2017-12-13T00:00:08.342Z,20.63
2017-12-13T00:02:41.418Z,22.10
2017-12-13T00:05:10.350Z,19.50
2017-12-13T00:07:41.418Z,20.63
2017-12-13T00:10:12.212Z,21.30
2017-12-13T00:12:43.442Z,23.73
2017-12-13T00:15:19.882Z,21.37
2017-12-13T00:17:53.891Z,24.10
2017-12-13T00:20:29.460Z,27.43
2017-12-13T00:23:02.582Z,20.10
2017-12-13T00:25:45.651Z,20.80
2017-12-13T00:28:15.272Z,24.63
2017-12-13T00:30:47.742Z,29.90
2017-12-13T00:33:27.986Z,24.30
2017-12-13T00:36:16.048Z,21.70
2017-12-13T00:38:51.410Z,24.47
2017-12-13T00:41:27.344Z,25.93
2017-12-13T00:46:59.835Z,25.17
2017-12-13T00:49:32.017Z,30.97
2017-12-13T00:52:00.186Z,25.60
2017-12-13T00:54:33.199Z,24.33
2017-12-13T00:57:12.491Z,26.17
2017-12-13T00:59:42.771Z,26.73
2017-12-13T01:02:10.948Z,29.27
2017-12-13T01:04:46.627Z,23.63
2017-12-13T01:07:14.747Z,24.90
2017-12-13T01:09:46.938Z,21.27
2017-12-13T01:12:15.133Z,25.00
2017-12-13T01:14:43.294Z,23.13
2017-12-13T01:17:17.731Z,26.00
2017-12-13T01:19:46.871Z,22.47
2017-12-13T01:22:16.081Z,22.60
2017-12-13T01:24:44.302Z,26.13
2017-12-13T01:27:12.503Z,21.50
2017-12-13T01:29:44.883Z,22.77
2017-12-13T01:32:17.315Z,19.70
2017-12-13T01:35:02.829Z,20.60
2017-12-13T01:37:48.598Z,24.10
2017-12-13T01:40:17.715Z,21.63
2017-12-13T01:42:46.826Z,24.40
2017-12-13T01:45:18.142Z,21.47
2017-12-13T01:47:47.325Z,23.53
2017-12-13T01:53:28.495Z,23.17
2017-12-13T01:56:08.177Z,19.50
2017-12-13T01:58:36.649Z,20.13
2017-12-13T02:01:05.024Z,22.53
2017-12-13T02:03:47.139Z,22.40
2017-12-13T02:06:16.167Z,20.90
2017-12-13T02:08:47.297Z,20.20
2017-12-13T02:11:17.384Z,22.97
2017-12-13T02:13:46.817Z,22.60
2017-12-13T02:16:15.228Z,19.60
2017-12-13T02:18:48.919Z,22.10
2017-12-13T02:26:38.876Z,23.73
2017-12-13T02:32:15.850Z,19.33
2017-12-13T02:34:44.797Z,25.20
2017-12-13T02:37:12.951Z,21.83
2017-12-13T02:39:47.112Z,18.50
2017-12-13T02:42:15.254Z,19.20
2017-12-13T02:44:46.553Z,20.30
2017-12-13T02:47:16.637Z,19.57
2017-12-13T02:49:48.409Z,19.90
2017-12-13T02:52:18.498Z,17.97
2017-12-13T02:54:47.681Z,21.90
2017-12-13T02:57:19.699Z,25.63
2017-12-13T02:59:47.846Z,22.20
2017-12-13T03:02:34.972Z,23.73
2017-12-13T03:05:03.095Z,27.67
2017-12-13T03:07:36.298Z,24.77
2017-12-13T03:10:04.430Z,21.53
2017-12-13T03:12:36.849Z,22.13
2017-12-13T03:15:06.897Z,18.30
2017-12-13T03:17:40.889Z,21.83
2017-12-13T03:20:10.918Z,23.63
2017-12-13T03:22:39.180Z,23.30
2017-12-13T03:25:07.322Z,19.47
2017-12-13T03:27:46.513Z,20.97
2017-12-13T03:30:15.562Z,23.33
2017-12-13T03:32:49.169Z,22.33
2017-12-13T03:35:17.393Z,23.00
2017-12-13T03:37:45.624Z,23.87
2017-12-13T03:40:17.620Z,24.80
2017-12-13T03:42:46.885Z,24.27
2017-12-13T03:45:15.003Z,25.23
2017-12-13T03:47:44.200Z,24.37
2017-12-13T03:50:14.289Z,24.60
2017-12-13T03:52:49.829Z,25.27
2017-12-13T03:55:25.533Z,23.83
2017-12-13T03:57:54.660Z,21.77
2017-12-13T04:00:40.327Z,26.17
2017-12-13T04:03:09.258Z,27.27
2017-12-13T04:05:41.262Z,23.90
2017-12-13T04:08:14.775Z,29.67
2017-12-13T04:10:48.814Z,26.80
2017-12-13T04:13:32.139Z,26.00
2017-12-13T04:16:00.330Z,23.77
2017-12-13T04:18:30.398Z,27.53
2017-12-13T04:20:59.340Z,29.60
2017-12-13T04:23:27.677Z,29.43
2017-12-13T04:25:56.566Z,24.33
2017-12-13T04:28:24.677Z,26.77
2017-12-13T04:31:10.682Z,26.33
2017-12-13T04:33:44.656Z,25.27
2017-12-13T04:36:19.654Z,23.47
2017-12-13T04:38:48.793Z,30.00
2017-12-13T04:41:17.941Z,29.83
2017-12-13T04:43:52.087Z,26.60
2017-12-13T04:46:21.059Z,27.07
2017-12-13T04:48:49.215Z,25.43
2017-12-13T04:51:21.391Z,28.67
2017-12-13T04:53:50.302Z,24.87
2017-12-13T04:56:18.469Z,31.33
2017-12-13T04:58:46.600Z,31.20
2017-12-13T05:01:20.545Z,29.37
2017-12-13T05:03:55.632Z,28.03
2017-12-13T05:06:24.674Z,29.27
2017-12-13T05:08:53.969Z,26.90
2017-12-13T05:11:22.102Z,24.30
2017-12-13T05:14:05.889Z,31.20
2017-12-13T05:16:35.937Z,23.00
2017-12-13T05:19:05.980Z,24.17
2017-12-13T05:21:39.106Z,23.87
2017-12-13T05:24:07.297Z,24.63
2017-12-13T05:26:35.422Z,24.60
2017-12-13T05:32:03.316Z,24.50
2017-12-13T05:34:33.468Z,22.37
2017-12-13T05:37:03.563Z,24.63
2017-12-13T05:39:35.628Z,21.20
2017-12-13T05:42:03.922Z,25.13
2017-12-13T05:44:42.976Z,23.97
2017-12-13T05:47:14.995Z,21.60
2017-12-13T05:49:44.871Z,21.07
2017-12-13T05:52:16.751Z,21.80
2017-12-13T05:54:47.075Z,18.93
2017-12-13T05:57:16.222Z,21.77
2017-12-13T05:59:49.145Z,18.60
2017-12-13T06:02:29.533Z,20.83
2017-12-13T06:04:58.629Z,20.07
2017-12-13T06:07:31.241Z,18.10
2017-12-13T06:10:12.545Z,19.50
2017-12-13T06:12:44.607Z,22.33
2017-12-13T06:15:12.733Z,20.50
2017-12-13T06:17:46.975Z,16.20
2017-12-13T06:20:19.962Z,16.70
2017-12-13T06:22:58.315Z,15.10
2017-12-13T06:25:26.513Z,15.77
2017-12-13T06:27:54.680Z,17.77
2017-12-13T06:30:22.882Z,15.87
2017-12-13T06:32:51.896Z,14.73
2017-12-13T06:35:22.115Z,14.67
2017-12-13T06:37:58.626Z,17.30
2017-12-13T06:40:29.922Z,14.57
2017-12-13T06:42:59.115Z,17.07
2017-12-13T06:45:27.346Z,15.33
2017-12-13T06:47:56.405Z,13.63
2017-12-13T06:50:26.557Z,13.90
2017-12-13T06:52:54.768Z,14.87
2017-12-13T06:55:25.020Z,19.03
2017-12-13T06:57:54.192Z,14.30
2017-12-13T07:00:23.127Z,13.40
2017-12-13T07:02:54.946Z,13.03
2017-12-13T07:05:23.866Z,16.10
2017-12-13T07:07:57.318Z,15.10
2017-12-13T07:10:25.514Z,15.33
2017-12-13T07:15:53.942Z,14.60
2017-12-13T07:18:25.967Z,15.50
2017-12-13T07:21:03.088Z,11.83
2017-12-13T07:23:35.199Z,12.40
2017-12-13T07:26:05.361Z,12.97
2017-12-13T07:28:33.568Z,13.97
2017-12-13T07:31:03.118Z,12.60
2017-12-13T07:33:45.674Z,12.77
2017-12-13T07:36:13.834Z,12.40
2017-12-13T07:38:42.017Z,11.60
2017-12-13T07:41:17.481Z,13.23
2017-12-13T07:43:47.676Z,11.60
2017-12-13T07:46:16.110Z,11.17
2017-12-13T07:48:45.238Z,9.73
2017-12-13T07:51:13.442Z,11.37
2017-12-13T07:53:43.538Z,12.60
2017-12-13T07:56:11.672Z,11.00
2017-12-13T07:58:40.172Z,10.00
2017-12-13T08:01:08.367Z,9.93
2017-12-13T08:03:38.707Z,9.57
2017-12-13T08:06:08.531Z,10.80
2017-12-13T08:08:40.899Z,10.97
2017-12-13T08:11:09.173Z,9.10
2017-12-13T08:13:39.136Z,9.27
2017-12-13T08:16:14.819Z,8.47
2017-12-13T08:18:43.112Z,8.27
2017-12-13T08:21:20.070Z,10.33
2017-12-13T08:23:48.215Z,7.80
2017-12-13T08:26:16.347Z,6.90
2017-12-13T08:28:44.534Z,8.23
2017-12-13T08:31:12.758Z,7.90
2017-12-13T08:33:42.858Z,7.03
2017-12-13T08:36:12.996Z,9.30
2017-12-13T08:38:41.190Z,6.43
2017-12-13T08:41:09.290Z,6.23
2017-12-13T08:43:42.498Z,6.37
2017-12-13T08:46:10.691Z,7.93
2017-12-13T08:48:38.843Z,6.93
2017-12-13T08:51:06.998Z,7.30
2017-12-13T08:53:35.159Z,7.50
2017-12-13T08:56:05.090Z,6.30
2017-12-13T08:58:34.016Z,7.00
2017-12-13T09:01:02.930Z,8.37
2017-12-13T09:03:31.140Z,9.80
2017-12-13T09:05:59.262Z,6.47
2017-12-13T09:08:37.696Z,5.40
2017-12-13T09:11:05.873Z,7.37
2017-12-13T09:13:34.018Z,6.20
2017-12-13T09:16:02.377Z,7.00
2017-12-13T09:18:30.691Z,6.20
2017-12-13T09:21:06.078Z,6.60
2017-12-13T09:23:34.334Z,5.80
2017-12-13T09:26:08.284Z,6.77
2017-12-13T09:28:41.896Z,6.53
2017-12-13T09:31:11.739Z,7.87
2017-12-13T09:33:39.903Z,6.70
2017-12-13T09:36:08.030Z,6.10
2017-12-13T09:38:37.286Z,5.63
2017-12-13T09:41:06.787Z,7.67
2017-12-13T09:43:35.052Z,5.07
2017-12-13T09:46:03.182Z,4.67
2017-12-13T09:48:38.753Z,5.47
2017-12-13T09:51:08.363Z,5.20
2017-12-13T09:53:45.087Z,6.30
2017-12-13T09:56:13.997Z,6.00
2017-12-13T09:58:42.261Z,4.73
2017-12-13T10:04:05.504Z,6.40
2017-12-13T10:06:39.470Z,5.10
2017-12-13T10:09:07.675Z,5.47
2017-12-13T10:11:35.942Z,5.60
2017-12-13T10:14:04.203Z,5.63
2017-12-13T10:16:37.196Z,4.57
2017-12-13T10:19:05.385Z,5.30
2017-12-13T10:21:33.901Z,5.17
2017-12-13T10:24:02.103Z,4.33
2017-12-13T10:26:30.478Z,5.53
2017-12-13T10:29:00.520Z,5.47
2017-12-13T10:31:28.718Z,5.10
2017-12-13T10:33:58.853Z,5.40
2017-12-13T10:36:28.030Z,5.80
2017-12-13T10:39:00.812Z,5.83
2017-12-13T10:41:31.137Z,6.10
2017-12-13T10:44:01.240Z,8.93
2017-12-13T10:46:29.404Z,5.33
2017-12-13T10:48:58.508Z,4.20
2017-12-13T10:51:33.402Z,4.30
2017-12-13T10:54:09.039Z,4.07
2017-12-13T10:56:38.204Z,6.07
2017-12-13T10:59:06.422Z,7.00
2017-12-13T11:01:38.572Z,4.37
2017-12-13T11:04:09.774Z,5.97
2017-12-13T11:06:40.217Z,4.70
2017-12-13T11:09:08.434Z,6.80
2017-12-13T11:11:36.769Z,7.27
2017-12-13T11:14:09.818Z,10.93
2017-12-13T11:16:38.467Z,5.50
2017-12-13T11:19:06.794Z,6.67
2017-12-13T11:21:37.006Z,5.43
2017-12-13T11:24:09.367Z,5.40
2017-12-13T11:26:40.751Z,7.73
2017-12-13T11:29:17.208Z,5.80
2017-12-13T11:31:46.557Z,5.47
2017-12-13T11:34:16.174Z,5.40
2017-12-13T11:36:47.883Z,7.90
2017-12-13T11:39:18.296Z,7.00
2017-12-13T11:41:51.431Z,4.67
2017-12-13T11:44:19.798Z,7.17
2017-12-13T11:46:48.686Z,4.63
2017-12-13T11:49:18.882Z,5.33
2017-12-13T11:51:48.121Z,5.50
2017-12-13T11:57:15.595Z,5.13
2017-12-13T11:59:46.941Z,6.87
2017-12-13T12:02:16.983Z,6.50
2017-12-13T12:04:45.266Z,7.03
2017-12-13T12:07:18.274Z,8.40
2017-12-13T12:10:08.143Z,7.20
2017-12-13T12:12:36.402Z,5.97
2017-12-13T12:15:10.924Z,7.70
2017-12-13T12:17:39.408Z,9.70
2017-12-13T12:20:07.759Z,6.63
2017-12-13T12:22:35.999Z,6.40
2017-12-13T12:25:04.179Z,6.67
2017-12-13T12:27:32.313Z,11.10
2017-12-13T12:30:01.097Z,5.87
2017-12-13T12:32:29.365Z,6.40
2017-12-13T12:35:09.256Z,5.77
2017-12-13T12:37:37.472Z,7.60
2017-12-13T12:40:06.011Z,7.20
2017-12-13T12:42:34.174Z,10.93
2017-12-13T12:45:02.315Z,8.73
2017-12-13T12:47:30.448Z,6.70
2017-12-13T12:49:58.741Z,8.17
2017-12-13T12:52:27.270Z,10.77
2017-12-13T12:54:55.712Z,7.60
2017-12-13T12:57:45.115Z,5.43
2017-12-13T13:00:15.511Z,6.27
2017-12-13T13:02:44.760Z,6.30
2017-12-13T13:07:57.103Z,5.80
2017-12-13T13:10:27.923Z,6.40
2017-12-13T13:12:59.710Z,5.07
2017-12-13T13:15:27.993Z,8.40
2017-12-13T13:18:07.733Z,5.53
2017-12-13T13:20:35.919Z,6.00
2017-12-13T13:23:09.505Z,7.00
2017-12-13T13:25:37.692Z,5.53
2017-12-13T13:28:06.303Z,5.50
2017-12-13T13:30:34.544Z,6.50
2017-12-13T13:33:02.719Z,6.70
2017-12-13T13:35:30.891Z,5.90
2017-12-13T13:38:00.226Z,5.30
2017-12-13T13:40:28.471Z,7.13
2017-12-13T13:42:56.720Z,5.70
2017-12-13T13:45:25.009Z,5.80
2017-12-13T13:47:54.269Z,6.40
2017-12-13T13:50:23.445Z,6.50
2017-12-13T13:52:55.003Z,6.87
2017-12-13T13:55:25.111Z,6.00
2017-12-13T13:57:54.273Z,5.97
2017-12-13T14:00:22.427Z,5.40
2017-12-13T14:02:50.552Z,6.10
2017-12-13T14:05:18.969Z,7.00
2017-12-13T14:07:48.062Z,8.60
2017-12-13T14:10:16.503Z,5.60
2017-12-13T14:12:44.853Z,6.87
2017-12-13T14:15:15.726Z,6.43
2017-12-13T14:17:49.422Z,5.03
2017-12-13T14:20:17.600Z,6.73
2017-12-13T14:22:45.845Z,5.73
2017-12-13T14:25:14.278Z,5.53
2017-12-13T14:27:46.756Z,5.43
2017-12-13T14:30:14.955Z,5.53
2017-12-13T14:32:44.238Z,5.40
2017-12-13T14:37:49.926Z,6.80
2017-12-13T14:40:18.171Z,5.10
2017-12-13T14:42:46.366Z,5.23
2017-12-13T14:45:16.520Z,5.70
2017-12-13T14:47:44.737Z,5.30
2017-12-13T14:50:31.858Z,6.40
2017-12-13T14:52:59.984Z,4.67
2017-12-13T14:55:35.356Z,5.60
2017-12-13T14:58:05.409Z,5.77
2017-12-13T15:00:34.734Z,6.30
2017-12-13T15:03:03.762Z,8.27
2017-12-13T15:08:04.852Z,5.40
2017-12-13T15:10:33.123Z,6.20
2017-12-13T15:13:03.555Z,5.77
2017-12-13T15:15:32.670Z,5.03
2017-12-13T15:18:01.651Z,7.10
2017-12-13T15:20:40.848Z,5.83
2017-12-13T15:23:11.894Z,6.07
2017-12-13T15:25:43.717Z,5.30
2017-12-13T15:28:12.813Z,5.57
2017-12-13T15:30:47.729Z,6.03
2017-12-13T15:33:19.943Z,6.20
2017-12-13T15:35:48.416Z,5.50
2017-12-13T15:38:16.642Z,5.47
2017-12-13T15:40:49.714Z,7.00
2017-12-13T15:43:18.790Z,5.93
2017-12-13T15:45:49.179Z,5.63
2017-12-13T15:48:17.500Z,9.37
2017-12-13T15:50:53.151Z,5.40
2017-12-13T15:53:21.375Z,6.40
2017-12-13T15:55:50.628Z,7.90
2017-12-13T15:58:21.198Z,6.00
2017-12-13T16:00:49.821Z,6.33
2017-12-13T16:03:18.840Z,5.43
2017-12-13T16:05:47.682Z,6.97
2017-12-13T16:08:18.050Z,7.17
2017-12-13T16:10:46.219Z,5.03
2017-12-13T16:13:15.347Z,6.17
2017-12-13T16:15:43.719Z,5.17
2017-12-13T16:18:11.969Z,4.83
2017-12-13T16:20:42.901Z,5.13
2017-12-13T16:23:11.810Z,4.60
2017-12-13T16:25:41.298Z,6.33
2017-12-13T16:28:09.640Z,4.93
2017-12-13T16:30:37.790Z,6.13
2017-12-13T16:33:06.973Z,5.00
2017-12-13T16:35:39.482Z,4.70
2017-12-13T16:38:12.981Z,3.93
2017-12-13T16:40:41.192Z,5.07
2017-12-13T16:43:10.392Z,4.90
2017-12-13T16:45:38.850Z,4.00
2017-12-13T16:48:07.095Z,4.40
2017-12-13T16:50:35.615Z,4.30
2017-12-13T16:53:03.826Z,4.20
2017-12-13T16:55:36.397Z,3.53
2017-12-13T16:58:04.719Z,4.53
2017-12-13T17:00:32.831Z,4.23
2017-12-13T17:03:03.984Z,3.70
2017-12-13T17:08:09.644Z,4.07
2017-12-13T17:10:39.790Z,4.93
2017-12-13T17:13:08.715Z,4.60
2017-12-13T17:15:37.374Z,5.67
2017-12-13T17:18:06.138Z,3.80
2017-12-13T17:20:40.349Z,4.20
2017-12-13T17:23:11.986Z,4.03
2017-12-13T17:25:45.078Z,4.43
2017-12-13T17:28:15.552Z,3.77
2017-12-13T17:30:59.186Z,4.90
2017-12-13T17:33:44.170Z,4.00
2017-12-13T17:36:12.613Z,6.90
2017-12-13T17:38:41.735Z,5.23
2017-12-13T17:41:17.958Z,5.00
2017-12-13T17:43:48.803Z,4.03
2017-12-13T17:46:17.014Z,3.50
2017-12-13T17:48:47.082Z,4.33
2017-12-13T17:51:16.281Z,3.87
2017-12-13T17:53:49.251Z,3.43
2017-12-13T17:56:19.283Z,4.47
2017-12-13T17:59:09.496Z,3.47
2017-12-13T18:01:37.685Z,3.70
2017-12-13T18:04:16.471Z,3.60
2017-12-13T18:06:44.618Z,5.67
2017-12-13T18:09:23.326Z,4.00
2017-12-13T18:11:54.576Z,3.77
2017-12-13T18:14:23.492Z,5.00
2017-12-13T18:16:51.675Z,4.30
2017-12-13T18:19:20.863Z,3.50
2017-12-13T18:21:51.008Z,3.10
2017-12-13T18:24:20.199Z,3.70
2017-12-13T18:26:48.379Z,3.90
2017-12-13T18:29:16.559Z,3.97
2017-12-13T18:32:05.320Z,4.60
2017-12-13T18:34:33.465Z,4.70
2017-12-13T18:37:03.373Z,4.50
2017-12-13T18:39:32.432Z,6.07
2017-12-13T18:42:00.801Z,6.33
2017-12-13T18:44:28.927Z,5.90
2017-12-13T18:46:57.182Z,7.33
2017-12-13T18:49:25.431Z,7.30
2017-12-13T18:51:53.781Z,7.20
2017-12-13T18:54:30.395Z,7.30
2017-12-13T18:56:58.607Z,8.17
2017-12-13T18:59:39.197Z,8.23
2017-12-13T19:02:07.413Z,8.67
2017-12-13T19:04:36.738Z,8.27
2017-12-13T19:07:06.863Z,9.20
2017-12-13T19:09:36.114Z,10.00
2017-12-13T19:12:07.214Z,9.60
2017-12-13T19:14:36.446Z,9.03
2017-12-13T19:17:04.605Z,8.37
2017-12-13T19:19:56.318Z,9.90
2017-12-13T19:22:37.160Z,9.90
2017-12-13T19:25:09.957Z,10.70
2017-12-13T19:27:38.081Z,9.00
2017-12-13T19:30:06.263Z,13.10
2017-12-13T19:32:44.626Z,9.80
2017-12-13T19:35:12.842Z,10.57
2017-12-13T19:37:40.991Z,11.77
2017-12-13T19:40:14.642Z,10.40
2017-12-13T19:42:47.560Z,10.40
2017-12-13T19:45:15.733Z,12.10
2017-12-13T19:47:44.080Z,11.97
2017-12-13T19:50:13.349Z,13.00
2017-12-13T19:52:41.626Z,13.40
2017-12-13T19:55:09.744Z,12.27
2017-12-13T19:57:38.072Z,12.63
2017-12-13T20:00:06.294Z,11.33
2017-12-13T20:02:41.334Z,12.80
2017-12-13T20:05:09.508Z,14.00
2017-12-13T20:07:37.719Z,13.23
2017-12-13T20:10:05.959Z,13.47
2017-12-13T20:12:34.258Z,14.77
2017-12-13T20:15:14.286Z,14.40
2017-12-13T20:17:42.472Z,13.10
2017-12-13T20:20:10.635Z,13.30
2017-12-13T20:22:39.767Z,14.40
2017-12-13T20:25:11.294Z,14.13
2017-12-13T20:27:39.473Z,13.53
2017-12-13T20:30:07.615Z,13.20
2017-12-13T20:32:36.088Z,12.53
2017-12-13T20:35:05.353Z,12.23
2017-12-13T20:37:54.551Z,14.50
2017-12-13T20:40:25.909Z,13.07
2017-12-13T20:42:54.085Z,12.33
2017-12-13T20:45:24.277Z,12.30
2017-12-13T20:47:52.877Z,12.83
2017-12-13T20:50:21.084Z,13.00
2017-12-13T20:52:52.348Z,11.90
2017-12-13T20:55:33.173Z,11.27
2017-12-13T20:58:01.423Z,13.00
2017-12-13T21:00:36.566Z,11.20
2017-12-13T21:03:04.848Z,10.30
2017-12-13T21:05:39.426Z,10.97
2017-12-13T21:08:09.667Z,10.87
2017-12-13T21:10:39.560Z,10.30
2017-12-13T21:13:18.196Z,10.40
2017-12-13T21:15:46.437Z,10.10
2017-12-13T21:18:19.938Z,10.27
2017-12-13T21:20:52.910Z,10.63
2017-12-13T21:23:21.046Z,10.47
2017-12-13T21:25:49.260Z,9.20
2017-12-13T21:28:17.391Z,9.17
2017-12-13T21:30:46.473Z,9.03
2017-12-13T21:33:14.578Z,8.47
2017-12-13T21:35:43.726Z,9.40
2017-12-13T21:41:12.326Z,8.07
2017-12-13T21:43:40.462Z,8.83
2017-12-13T21:46:10.367Z,8.80
2017-12-13T21:48:40.547Z,7.60
2017-12-13T21:51:09.654Z,7.00
2017-12-13T21:53:38.766Z,6.60
2017-12-13T21:56:07.662Z,6.67
2017-12-13T21:58:46.915Z,6.57
2017-12-13T22:01:15.126Z,6.77
2017-12-13T22:03:48.968Z,6.30
2017-12-13T22:06:18.142Z,5.97
2017-12-13T22:08:46.319Z,6.03
2017-12-13T22:11:14.468Z,5.70
2017-12-13T22:13:42.665Z,6.10
2017-12-13T22:16:23.048Z,6.40
2017-12-13T22:18:57.894Z,4.93
2017-12-13T22:21:27.055Z,6.73
2017-12-13T22:23:56.264Z,5.77
2017-12-13T22:26:42.690Z,5.40
2017-12-13T22:29:10.868Z,5.90
2017-12-13T22:31:39.115Z,6.33
2017-12-13T22:34:10.941Z,6.20
2017-12-13T22:36:39.060Z,5.10
2017-12-13T22:39:09.362Z,5.27
2017-12-13T22:41:37.578Z,4.80
2017-12-13T22:44:10.790Z,4.90
2017-12-13T22:46:42.562Z,5.20
2017-12-13T22:49:12.455Z,5.13
2017-12-13T22:51:40.665Z,5.23
2017-12-13T22:54:09.842Z,4.87
2017-12-13T22:56:42.781Z,5.20
2017-12-13T22:59:10.888Z,4.10
2017-12-13T23:01:39.077Z,4.13
2017-12-13T23:04:07.684Z,4.33
2017-12-13T23:06:37.877Z,5.30
2017-12-13T23:09:06.037Z,3.83
2017-12-13T23:11:34.162Z,3.80
2017-12-13T23:14:02.304Z,4.27
2017-12-13T23:16:41.025Z,2.80
2017-12-13T23:19:10.234Z,3.10
2017-12-13T23:21:38.398Z,2.67
2017-12-13T23:24:07.107Z,2.53
2017-12-13T23:26:35.206Z,2.83
2017-12-13T23:29:03.438Z,2.70
2017-12-13T23:31:31.615Z,2.77
2017-12-13T23:34:00.781Z,3.20
2017-12-13T23:36:29.716Z,2.40
2017-12-13T23:38:59.084Z,2.60
2017-12-13T23:41:41.038Z,2.30
2017-12-13T23:44:10.160Z,2.80
2017-12-13T23:46:40.520Z,2.40
2017-12-13T23:49:27.239Z,1.70
2017-12-13T23:52:02.258Z,1.60
2017-12-13T23:54:40.915Z,1.50
2017-12-13T23:57:09.962Z,1.67
2017-12-13T23:59:38.220Z,2.23
